sensor_id;sensor_type;location;lat;lon;timestamp;pressure;altitude;pressure_sealevel;temperature;humidity
59409;BME280;45213;32.654;-115.458;2022-09-03T00:02:13;100506.53;;;40.36;27.55
59409;BME280;45213;32.654;-115.458;2022-09-03T00:04:47;100489.06;;;40.07;28.32
59409;BME280;45213;32.654;-115.458;2022-09-03T00:07:21;100498.00;;;40.01;28.27
59409;BME280;45213;32.654;-115.458;2022-09-03T00:09:55;100490.75;;;39.94;28.17
59409;BME280;45213;32.654;-115.458;2022-09-03T00:12:32;100502.94;;;39.83;28.37
59409;BME280;45213;32.654;-115.458;2022-09-03T00:15:05;100506.00;;;39.80;28.43
59409;BME280;45213;32.654;-115.458;2022-09-03T00:18:03;100503.13;;;39.81;27.92
59409;BME280;45213;32.654;-115.458;2022-09-03T00:20:53;100495.09;;;39.80;27.67
59409;BME280;45213;32.654;-115.458;2022-09-03T00:23:27;100498.81;;;39.87;27.94
59409;BME280;45213;32.654;-115.458;2022-09-03T00:31:12;100508.44;;;39.75;28.43
59409;BME280;45213;32.654;-115.458;2022-09-03T00:33:49;100511.28;;;39.58;28.68
59409;BME280;45213;32.654;-115.458;2022-09-03T00:36:47;100519.78;;;39.63;28.73
59409;BME280;45213;32.654;-115.458;2022-09-03T00:39:21;100522.94;;;39.52;28.45
59409;BME280;45213;32.654;-115.458;2022-09-03T00:55:21;100544.69;;;38.98;29.99
59409;BME280;45213;32.654;-115.458;2022-09-03T01:00:40;100529.72;;;38.94;30.37
59409;BME280;45213;32.654;-115.458;2022-09-03T01:03:16;100541.28;;;38.96;30.24
59409;BME280;45213;32.654;-115.458;2022-09-03T01:11:19;100550.88;;;38.67;30.99
59409;BME280;45213;32.654;-115.458;2022-09-03T01:19:39;100552.53;;;38.20;31.90
59409;BME280;45213;32.654;-115.458;2022-09-03T01:22:34;100557.44;;;38.17;32.02
59409;BME280;45213;32.654;-115.458;2022-09-03T01:25:16;100551.69;;;38.12;32.18
59409;BME280;45213;32.654;-115.458;2022-09-03T01:30:37;100551.47;;;37.97;31.87
59409;BME280;45213;32.654;-115.458;2022-09-03T01:33:51;100559.16;;;38.01;32.42
59409;BME280;45213;32.654;-115.458;2022-09-03T01:36:44;100569.31;;;37.75;32.75
59409;BME280;45213;32.654;-115.458;2022-09-03T01:40:23;100564.41;;;37.70;33.01
59409;BME280;45213;32.654;-115.458;2022-09-03T01:59:28;100568.50;;;37.24;33.08
59409;BME280;45213;32.654;-115.458;2022-09-03T02:02:08;100565.44;;;37.27;33.53
59409;BME280;45213;32.654;-115.458;2022-09-03T02:04:38;100551.84;;;37.10;33.48
59409;BME280;45213;32.654;-115.458;2022-09-03T02:07:05;100585.28;;;37.19;33.74
59409;BME280;45213;32.654;-115.458;2022-09-03T02:09:32;100566.91;;;37.05;34.10
59409;BME280;45213;32.654;-115.458;2022-09-03T02:12:07;100579.31;;;37.07;34.19
59409;BME280;45213;32.654;-115.458;2022-09-03T02:14:34;100593.50;;;37.01;34.44
59409;BME280;45213;32.654;-115.458;2022-09-03T02:17:02;100595.66;;;36.89;35.17
59409;BME280;45213;32.654;-115.458;2022-09-03T02:19:30;100576.75;;;36.71;35.33
59409;BME280;45213;32.654;-115.458;2022-09-03T02:22:00;100603.53;;;36.74;35.48
59409;BME280;45213;32.654;-115.458;2022-09-03T02:24:27;100609.28;;;36.71;35.20
59409;BME280;45213;32.654;-115.458;2022-09-03T02:26:54;100611.66;;;36.66;35.55
59409;BME280;45213;32.654;-115.458;2022-09-03T02:29:21;100609.88;;;36.57;35.87
59409;BME280;45213;32.654;-115.458;2022-09-03T02:31:48;100630.19;;;36.53;35.88
59409;BME280;45213;32.654;-115.458;2022-09-03T02:34:15;100611.13;;;36.45;36.26
59409;BME280;45213;32.654;-115.458;2022-09-03T02:36:46;100602.72;;;36.30;36.50
59409;BME280;45213;32.654;-115.458;2022-09-03T02:39:14;100621.28;;;36.43;36.40
59409;BME280;45213;32.654;-115.458;2022-09-03T02:41:41;100622.22;;;36.33;35.98
59409;BME280;45213;32.654;-115.458;2022-09-03T02:44:28;100624.72;;;36.27;35.74
59409;BME280;45213;32.654;-115.458;2022-09-03T02:46:59;100622.19;;;36.25;36.23
59409;BME280;45213;32.654;-115.458;2022-09-03T02:49:26;100618.41;;;36.18;36.15
59409;BME280;45213;32.654;-115.458;2022-09-03T02:51:58;100620.22;;;36.17;36.22
59409;BME280;45213;32.654;-115.458;2022-09-03T02:54:26;100634.66;;;36.18;35.51
59409;BME280;45213;32.654;-115.458;2022-09-03T02:56:58;100649.91;;;36.19;35.56
59409;BME280;45213;32.654;-115.458;2022-09-03T02:59:25;100639.69;;;36.13;35.34
59409;BME280;45213;32.654;-115.458;2022-09-03T03:01:54;100641.00;;;36.09;35.29
59409;BME280;45213;32.654;-115.458;2022-09-03T03:04:21;100640.53;;;35.95;35.39
59409;BME280;45213;32.654;-115.458;2022-09-03T03:06:49;100653.38;;;35.93;35.00
59409;BME280;45213;32.654;-115.458;2022-09-03T03:09:16;100665.59;;;35.97;35.05
59409;BME280;45213;32.654;-115.458;2022-09-03T03:11:44;100646.47;;;35.81;35.01
59409;BME280;45213;32.654;-115.458;2022-09-03T03:14:10;100671.97;;;35.88;35.16
59409;BME280;45213;32.654;-115.458;2022-09-03T03:16:37;100693.31;;;35.91;34.71
59409;BME280;45213;32.654;-115.458;2022-09-03T03:19:03;100693.63;;;35.88;35.01
59409;BME280;45213;32.654;-115.458;2022-09-03T03:21:30;100697.66;;;35.84;34.52
59409;BME280;45213;32.654;-115.458;2022-09-03T03:23:56;100691.13;;;35.77;34.41
59409;BME280;45213;32.654;-115.458;2022-09-03T03:26:23;100702.13;;;35.75;34.88
59409;BME280;45213;32.654;-115.458;2022-09-03T03:28:55;100715.50;;;35.77;34.77
59409;BME280;45213;32.654;-115.458;2022-09-03T03:31:22;100704.88;;;35.66;34.72
59409;BME280;45213;32.654;-115.458;2022-09-03T03:34:01;100719.81;;;35.70;34.99
59409;BME280;45213;32.654;-115.458;2022-09-03T03:36:32;100716.00;;;35.63;34.84
59409;BME280;45213;32.654;-115.458;2022-09-03T03:38:59;100712.63;;;35.51;34.89
59409;BME280;45213;32.654;-115.458;2022-09-03T03:41:29;100737.56;;;35.54;35.02
59409;BME280;45213;32.654;-115.458;2022-09-03T03:44:01;100726.88;;;35.53;35.20
59409;BME280;45213;32.654;-115.458;2022-09-03T03:46:31;100723.44;;;35.51;35.50
59409;BME280;45213;32.654;-115.458;2022-09-03T03:48:58;100729.25;;;35.56;34.83
59409;BME280;45213;32.654;-115.458;2022-09-03T03:51:26;100728.03;;;35.50;35.01
59409;BME280;45213;32.654;-115.458;2022-09-03T03:53:55;100724.22;;;35.43;35.07
59409;BME280;45213;32.654;-115.458;2022-09-03T03:56:23;100723.25;;;35.34;35.18
59409;BME280;45213;32.654;-115.458;2022-09-03T03:58:52;100735.75;;;35.35;35.53
59409;BME280;45213;32.654;-115.458;2022-09-03T04:01:24;100742.34;;;35.33;35.04
59409;BME280;45213;32.654;-115.458;2022-09-03T04:03:54;100743.78;;;35.27;35.56
59409;BME280;45213;32.654;-115.458;2022-09-03T04:06:21;100733.28;;;35.14;35.40
59409;BME280;45213;32.654;-115.458;2022-09-03T04:08:48;100755.91;;;35.23;35.51
59409;BME280;45213;32.654;-115.458;2022-09-03T04:11:20;100750.78;;;35.10;35.89
59409;BME280;45213;32.654;-115.458;2022-09-03T04:13:48;100763.47;;;35.20;35.93
59409;BME280;45213;32.654;-115.458;2022-09-03T04:16:18;100764.91;;;35.14;35.90
59409;BME280;45213;32.654;-115.458;2022-09-03T04:18:45;100774.59;;;35.17;36.13
59409;BME280;45213;32.654;-115.458;2022-09-03T04:21:25;100752.94;;;34.97;36.12
59409;BME280;45213;32.654;-115.458;2022-09-03T04:23:54;100771.31;;;35.03;35.78
59409;BME280;45213;32.654;-115.458;2022-09-03T04:26:29;100777.44;;;35.05;35.59
59409;BME280;45213;32.654;-115.458;2022-09-03T04:29:04;100791.25;;;35.02;35.88
59409;BME280;45213;32.654;-115.458;2022-09-03T04:31:32;100786.41;;;34.96;35.89
59409;BME280;45213;32.654;-115.458;2022-09-03T04:34:05;100805.50;;;34.94;36.11
59409;BME280;45213;32.654;-115.458;2022-09-03T04:36:31;100805.50;;;34.94;36.08
59409;BME280;45213;32.654;-115.458;2022-09-03T04:39:00;100817.16;;;34.95;35.77
59409;BME280;45213;32.654;-115.458;2022-09-03T04:41:28;100819.19;;;34.93;36.17
59409;BME280;45213;32.654;-115.458;2022-09-03T04:43:56;100826.13;;;34.86;36.13
59409;BME280;45213;32.654;-115.458;2022-09-03T04:46:26;100847.78;;;34.96;35.49
59409;BME280;45213;32.654;-115.458;2022-09-03T04:48:58;100824.75;;;34.82;35.72
59409;BME280;45213;32.654;-115.458;2022-09-03T04:51:27;100828.44;;;34.81;36.02
59409;BME280;45213;32.654;-115.458;2022-09-03T04:53:57;100844.34;;;34.84;36.25
59409;BME280;45213;32.654;-115.458;2022-09-03T04:56:30;100850.50;;;34.76;36.49
59409;BME280;45213;32.654;-115.458;2022-09-03T04:58:57;100846.34;;;34.62;37.54
59409;BME280;45213;32.654;-115.458;2022-09-03T05:01:26;100860.88;;;34.61;37.09
59409;BME280;45213;32.654;-115.458;2022-09-03T05:03:55;100846.03;;;34.46;37.59
59409;BME280;45213;32.654;-115.458;2022-09-03T05:06:27;100867.91;;;34.33;38.66
59409;BME280;45213;32.654;-115.458;2022-09-03T05:08:54;100868.50;;;34.37;38.34
59409;BME280;45213;32.654;-115.458;2022-09-03T05:11:22;100873.56;;;34.20;39.61
59409;BME280;45213;32.654;-115.458;2022-09-03T05:13:51;100864.03;;;34.16;38.89
59409;BME280;45213;32.654;-115.458;2022-09-03T05:16:19;100894.09;;;34.33;39.13
59409;BME280;45213;32.654;-115.458;2022-09-03T05:18:47;100880.97;;;34.28;39.17
59409;BME280;45213;32.654;-115.458;2022-09-03T05:21:15;100884.22;;;34.22;39.31
59409;BME280;45213;32.654;-115.458;2022-09-03T05:23:47;100877.28;;;34.29;38.86
59409;BME280;45213;32.654;-115.458;2022-09-03T05:26:23;100864.47;;;34.21;38.88
59409;BME280;45213;32.654;-115.458;2022-09-03T05:28:58;100876.56;;;34.27;38.92
59409;BME280;45213;32.654;-115.458;2022-09-03T05:31:26;100863.03;;;34.17;38.41
59409;BME280;45213;32.654;-115.458;2022-09-03T05:33:55;100865.00;;;34.15;38.58
59409;BME280;45213;32.654;-115.458;2022-09-03T05:36:25;100873.81;;;34.17;38.77
59409;BME280;45213;32.654;-115.458;2022-09-03T05:38:52;100882.66;;;34.19;39.11
59409;BME280;45213;32.654;-115.458;2022-09-03T05:41:23;100879.66;;;34.13;39.36
59409;BME280;45213;32.654;-115.458;2022-09-03T05:43:51;100876.59;;;34.06;39.37
59409;BME280;45213;32.654;-115.458;2022-09-03T05:46:22;100879.72;;;34.01;39.56
59409;BME280;45213;32.654;-115.458;2022-09-03T05:48:55;100895.06;;;34.01;39.82
59409;BME280;45213;32.654;-115.458;2022-09-03T05:51:21;100890.81;;;33.98;39.92
59409;BME280;45213;32.654;-115.458;2022-09-03T05:53:48;100885.53;;;33.97;40.18
59409;BME280;45213;32.654;-115.458;2022-09-03T05:56:22;100877.38;;;33.87;40.16
59409;BME280;45213;32.654;-115.458;2022-09-03T05:58:53;100912.09;;;33.92;40.33
59409;BME280;45213;32.654;-115.458;2022-09-03T06:01:29;100922.91;;;33.92;40.63
59409;BME280;45213;32.654;-115.458;2022-09-03T06:04:16;100915.44;;;33.84;41.21
59409;BME280;45213;32.654;-115.458;2022-09-03T06:06:45;100912.19;;;33.80;41.25
59409;BME280;45213;32.654;-115.458;2022-09-03T06:09:19;100913.56;;;33.75;41.78
59409;BME280;45213;32.654;-115.458;2022-09-03T06:11:47;100914.44;;;33.75;41.67
59409;BME280;45213;32.654;-115.458;2022-09-03T06:14:17;100930.75;;;33.74;42.70
59409;BME280;45213;32.654;-115.458;2022-09-03T06:16:45;100910.59;;;33.57;42.37
59409;BME280;45213;32.654;-115.458;2022-09-03T06:19:19;100936.44;;;33.71;42.51
59409;BME280;45213;32.654;-115.458;2022-09-03T06:21:46;100929.13;;;33.61;42.94
59409;BME280;45213;32.654;-115.458;2022-09-03T06:24:18;100926.31;;;33.52;43.55
59409;BME280;45213;32.654;-115.458;2022-09-03T06:26:45;100937.91;;;33.42;43.60
59409;BME280;45213;32.654;-115.458;2022-09-03T06:29:13;100930.19;;;33.38;44.15
59409;BME280;45213;32.654;-115.458;2022-09-03T06:31:40;100921.75;;;33.31;44.25
59409;BME280;45213;32.654;-115.458;2022-09-03T06:34:07;100901.84;;;33.11;45.21
59409;BME280;45213;32.654;-115.458;2022-09-03T06:36:33;100915.50;;;33.10;45.64
59409;BME280;45213;32.654;-115.458;2022-09-03T06:39:03;100898.59;;;33.07;45.89
59409;BME280;45213;32.654;-115.458;2022-09-03T06:41:31;100888.91;;;32.94;46.15
59409;BME280;45213;32.654;-115.458;2022-09-03T06:44:03;100895.66;;;32.88;46.31
59409;BME280;45213;32.654;-115.458;2022-09-03T06:46:31;100879.16;;;32.81;46.74
59409;BME280;45213;32.654;-115.458;2022-09-03T06:49:00;100871.94;;;32.82;46.88
59409;BME280;45213;32.654;-115.458;2022-09-03T06:51:29;100870.94;;;32.83;47.02
59409;BME280;45213;32.654;-115.458;2022-09-03T06:54:07;100871.56;;;32.86;46.43
59409;BME280;45213;32.654;-115.458;2022-09-03T06:56:35;100852.22;;;32.70;46.66
59409;BME280;45213;32.654;-115.458;2022-09-03T06:59:13;100883.56;;;32.82;46.90
59409;BME280;45213;32.654;-115.458;2022-09-03T07:01:43;100865.31;;;32.75;46.82
59409;BME280;45213;32.654;-115.458;2022-09-03T07:04:12;100864.34;;;32.76;47.04
59409;BME280;45213;32.654;-115.458;2022-09-03T07:06:39;100858.97;;;32.76;47.31
59409;BME280;45213;32.654;-115.458;2022-09-03T07:09:09;100870.59;;;32.76;47.26
59409;BME280;45213;32.654;-115.458;2022-09-03T07:11:36;100848.91;;;32.78;47.34
59409;BME280;45213;32.654;-115.458;2022-09-03T07:14:04;100826.75;;;32.63;47.80
59409;BME280;45213;32.654;-115.458;2022-09-03T07:16:35;100840.78;;;32.57;47.76
59409;BME280;45213;32.654;-115.458;2022-09-03T07:19:03;100826.19;;;32.59;47.81
59409;BME280;45213;32.654;-115.458;2022-09-03T07:21:31;100823.34;;;32.61;47.53
59409;BME280;45213;32.654;-115.458;2022-09-03T07:24:02;100814.28;;;32.62;47.36
59409;BME280;45213;32.654;-115.458;2022-09-03T07:26:37;100837.94;;;32.58;47.79
59409;BME280;45213;32.654;-115.458;2022-09-03T07:29:06;100835.38;;;32.57;47.60
59409;BME280;45213;32.654;-115.458;2022-09-03T07:31:36;100829.00;;;32.58;47.97
59409;BME280;45213;32.654;-115.458;2022-09-03T07:34:05;100817.75;;;32.53;48.29
59409;BME280;45213;32.654;-115.458;2022-09-03T07:36:41;100776.25;;;32.33;48.10
59409;BME280;45213;32.654;-115.458;2022-09-03T07:39:10;100787.75;;;32.35;48.14
59409;BME280;45213;32.654;-115.458;2022-09-03T07:41:38;100788.72;;;32.34;48.22
59409;BME280;45213;32.654;-115.458;2022-09-03T07:44:09;100791.78;;;32.29;48.30
59409;BME280;45213;32.654;-115.458;2022-09-03T07:46:36;100786.41;;;32.29;48.44
59409;BME280;45213;32.654;-115.458;2022-09-03T07:49:04;100794.09;;;32.34;48.59
59409;BME280;45213;32.654;-115.458;2022-09-03T07:51:34;100804.88;;;32.34;48.56
59409;BME280;45213;32.654;-115.458;2022-09-03T07:54:04;100782.78;;;32.19;48.40
59409;BME280;45213;32.654;-115.458;2022-09-03T07:56:32;100804.31;;;32.30;48.50
59409;BME280;45213;32.654;-115.458;2022-09-03T07:59:01;100798.19;;;32.28;48.35
59409;BME280;45213;32.654;-115.458;2022-09-03T08:01:28;100781.44;;;32.13;48.65
59409;BME280;45213;32.654;-115.458;2022-09-03T08:03:56;100802.38;;;32.21;48.88
59409;BME280;45213;32.654;-115.458;2022-09-03T08:06:25;100807.88;;;32.19;49.20
59409;BME280;45213;32.654;-115.458;2022-09-03T08:08:58;100813.53;;;32.16;49.00
59409;BME280;45213;32.654;-115.458;2022-09-03T08:11:27;100795.66;;;32.04;49.38
59409;BME280;45213;32.654;-115.458;2022-09-03T08:16:22;100803.59;;;32.17;48.98
59409;BME280;45213;32.654;-115.458;2022-09-03T08:18:49;100788.44;;;32.04;49.11
59409;BME280;45213;32.654;-115.458;2022-09-03T08:21:18;100799.22;;;32.04;49.48
59409;BME280;45213;32.654;-115.458;2022-09-03T08:23:47;100811.44;;;32.09;50.06
59409;BME280;45213;32.654;-115.458;2022-09-03T08:26:15;100809.63;;;31.98;49.80
59409;BME280;45213;32.654;-115.458;2022-09-03T08:28:43;100810.84;;;32.05;49.64
59409;BME280;45213;32.654;-115.458;2022-09-03T08:31:16;100802.28;;;32.00;50.17
59409;BME280;45213;32.654;-115.458;2022-09-03T08:33:48;100811.34;;;31.99;50.09
59409;BME280;45213;32.654;-115.458;2022-09-03T08:36:23;100799.31;;;31.92;49.75
59409;BME280;45213;32.654;-115.458;2022-09-03T08:38:51;100825.53;;;32.01;50.18
59409;BME280;45213;32.654;-115.458;2022-09-03T08:47:04;100818.69;;;31.97;50.81
59409;BME280;45213;32.654;-115.458;2022-09-03T08:52:29;100803.34;;;31.75;50.87
59409;BME280;45213;32.654;-115.458;2022-09-03T08:55:20;100823.06;;;31.87;51.72
59409;BME280;45213;32.654;-115.458;2022-09-03T08:58:35;100824.03;;;31.86;51.44
59409;BME280;45213;32.654;-115.458;2022-09-03T09:01:09;100824.78;;;31.88;51.87
59409;BME280;45213;32.654;-115.458;2022-09-03T09:06:32;100828.94;;;31.80;52.09
59409;BME280;45213;32.654;-115.458;2022-09-03T09:11:49;100829.91;;;31.79;53.45
59409;BME280;45213;32.654;-115.458;2022-09-03T09:17:38;100825.41;;;31.69;54.71
59409;BME280;45213;32.654;-115.458;2022-09-03T09:20:49;100809.59;;;31.53;55.22
59409;BME280;45213;32.654;-115.458;2022-09-03T09:23:38;100818.66;;;31.63;55.48
59409;BME280;45213;32.654;-115.458;2022-09-03T09:26:10;100824.53;;;31.57;55.97
59409;BME280;45213;32.654;-115.458;2022-09-03T09:28:38;100819.88;;;31.59;55.79
59409;BME280;45213;32.654;-115.458;2022-09-03T09:31:06;100820.38;;;31.53;56.41
59409;BME280;45213;32.654;-115.458;2022-09-03T09:33:37;100818.63;;;31.52;55.86
59409;BME280;45213;32.654;-115.458;2022-09-03T09:36:09;100812.03;;;31.45;56.68
59409;BME280;45213;32.654;-115.458;2022-09-03T09:38:39;100804.66;;;31.35;56.78
59409;BME280;45213;32.654;-115.458;2022-09-03T09:43:38;100821.53;;;31.37;57.10
59409;BME280;45213;32.654;-115.458;2022-09-03T09:46:11;100819.56;;;31.39;57.03
59409;BME280;45213;32.654;-115.458;2022-09-03T09:48:53;100821.16;;;31.31;57.00
59409;BME280;45213;32.654;-115.458;2022-09-03T09:51:25;100837.03;;;31.34;57.36
59409;BME280;45213;32.654;-115.458;2022-09-03T09:56:29;100837.03;;;31.34;57.73
59409;BME280;45213;32.654;-115.458;2022-09-03T09:59:07;100830.81;;;31.33;57.88
59409;BME280;45213;32.654;-115.458;2022-09-03T10:01:42;100835.44;;;31.31;57.66
59409;BME280;45213;32.654;-115.458;2022-09-03T10:04:13;100836.19;;;31.33;57.85
59409;BME280;45213;32.654;-115.458;2022-09-03T10:06:53;100841.72;;;31.32;58.25
59409;BME280;45213;32.654;-115.458;2022-09-03T10:09:25;100820.75;;;31.24;58.35
59409;BME280;45213;32.654;-115.458;2022-09-03T10:14:37;100826.63;;;31.29;58.94
59409;BME280;45213;32.654;-115.458;2022-09-03T10:23:05;100834.47;;;31.21;60.01
59409;BME280;45213;32.654;-115.458;2022-09-03T10:28:15;100829.31;;;31.18;60.17
59409;BME280;45213;32.654;-115.458;2022-09-03T10:31:08;100843.28;;;31.23;60.52
59409;BME280;45213;32.654;-115.458;2022-09-03T10:34:05;100840.19;;;31.16;61.02
59409;BME280;45213;32.654;-115.458;2022-09-03T10:47:41;100839.91;;;31.08;62.40
59409;BME280;45213;32.654;-115.458;2022-09-03T10:50:21;100816.78;;;30.94;62.66
59409;BME280;45213;32.654;-115.458;2022-09-03T11:01:36;100849.09;;;31.06;63.52
59409;BME280;45213;32.654;-115.458;2022-09-03T11:07:04;100847.44;;;30.92;64.47
59409;BME280;45213;32.654;-115.458;2022-09-03T11:09:43;100855.41;;;30.93;64.13
59409;BME280;45213;32.654;-115.458;2022-09-03T11:12:22;100845.59;;;30.92;64.46
59409;BME280;45213;32.654;-115.458;2022-09-03T11:14:55;100852.72;;;30.93;64.46
59409;BME280;45213;32.654;-115.458;2022-09-03T11:17:27;100861.25;;;30.87;64.58
59409;BME280;45213;32.654;-115.458;2022-09-03T11:20:16;100857.81;;;30.85;64.66
59409;BME280;45213;32.654;-115.458;2022-09-03T11:22:45;100842.09;;;30.79;64.84
59409;BME280;45213;32.654;-115.458;2022-09-03T11:25:15;100851.88;;;30.80;64.79
59409;BME280;45213;32.654;-115.458;2022-09-03T11:31:44;100866.53;;;30.76;65.12
59409;BME280;45213;32.654;-115.458;2022-09-03T11:33:55;100849.50;;;30.64;65.45
59409;BME280;45213;32.654;-115.458;2022-09-03T11:36:38;100848.75;;;30.62;65.86
59409;BME280;45213;32.654;-115.458;2022-09-03T11:39:38;100873.34;;;30.69;66.39
59409;BME280;45213;32.654;-115.458;2022-09-03T11:42:10;100867.44;;;30.64;66.45
59409;BME280;45213;32.654;-115.458;2022-09-03T11:47:36;100875.97;;;30.57;66.98
59409;BME280;45213;32.654;-115.458;2022-09-03T11:50:16;100875.66;;;30.49;67.12
59409;BME280;45213;32.654;-115.458;2022-09-03T11:52:48;100888.66;;;30.55;66.64
59409;BME280;45213;32.654;-115.458;2022-09-03T11:55:32;100889.22;;;30.48;66.86
59409;BME280;45213;32.654;-115.458;2022-09-03T11:58:38;100891.59;;;30.39;67.22
59409;BME280;45213;32.654;-115.458;2022-09-03T12:01:10;100884.81;;;30.34;67.13
59409;BME280;45213;32.654;-115.458;2022-09-03T12:03:45;100870.75;;;30.17;67.04
59409;BME280;45213;32.654;-115.458;2022-09-03T12:17:13;100922.56;;;30.32;65.54
59409;BME280;45213;32.654;-115.458;2022-09-03T12:19:55;100930.63;;;30.32;65.54
59409;BME280;45213;32.654;-115.458;2022-09-03T12:22:26;100946.41;;;30.37;65.13
59409;BME280;45213;32.654;-115.458;2022-09-03T12:25:11;100945.94;;;30.43;65.05
59409;BME280;45213;32.654;-115.458;2022-09-03T12:27:41;100947.25;;;30.37;65.81
59409;BME280;45213;32.654;-115.458;2022-09-03T12:30:15;100939.75;;;30.30;66.47
59409;BME280;45213;32.654;-115.458;2022-09-03T12:32:43;100932.75;;;30.27;66.56
59409;BME280;45213;32.654;-115.458;2022-09-03T12:35:14;100948.97;;;30.26;67.48
59409;BME280;45213;32.654;-115.458;2022-09-03T12:37:44;100964.44;;;30.22;67.96
59409;BME280;45213;32.654;-115.458;2022-09-03T12:40:22;100950.38;;;30.18;68.09
59409;BME280;45213;32.654;-115.458;2022-09-03T12:42:49;100937.28;;;30.14;68.39
59409;BME280;45213;32.654;-115.458;2022-09-03T12:45:19;100947.56;;;30.20;67.99
59409;BME280;45213;32.654;-115.458;2022-09-03T12:47:46;100933.50;;;30.04;68.50
59409;BME280;45213;32.654;-115.458;2022-09-03T12:50:22;100958.34;;;30.07;68.78
59409;BME280;45213;32.654;-115.458;2022-09-03T12:52:58;100966.91;;;30.12;68.47
59409;BME280;45213;32.654;-115.458;2022-09-03T12:55:44;100975.72;;;30.14;68.49
59409;BME280;45213;32.654;-115.458;2022-09-03T12:58:26;100974.66;;;30.17;68.20
59409;BME280;45213;32.654;-115.458;2022-09-03T13:01:07;100984.72;;;30.13;68.14
59409;BME280;45213;32.654;-115.458;2022-09-03T13:06:21;100986.03;;;30.08;68.58
59409;BME280;45213;32.654;-115.458;2022-09-03T13:08:52;100995.38;;;30.02;68.40
59409;BME280;45213;32.654;-115.458;2022-09-03T13:11:21;101002.06;;;30.09;68.17
59409;BME280;45213;32.654;-115.458;2022-09-03T13:14:15;101004.19;;;30.04;68.32
59409;BME280;45213;32.654;-115.458;2022-09-03T13:30:22;101018.03;;;30.11;67.52
59409;BME280;45213;32.654;-115.458;2022-09-03T13:33:18;101018.88;;;30.11;67.65
59409;BME280;45213;32.654;-115.458;2022-09-03T13:36:02;101018.88;;;30.11;67.69
59409;BME280;45213;32.654;-115.458;2022-09-03T13:41:17;101034.81;;;30.14;67.56
59409;BME280;45213;32.654;-115.458;2022-09-03T13:44:07;101032.88;;;30.16;67.52
59409;BME280;45213;32.654;-115.458;2022-09-03T13:49:41;101031.56;;;30.22;67.34
59409;BME280;45213;32.654;-115.458;2022-09-03T13:52:37;101036.31;;;30.18;67.01
59409;BME280;45213;32.654;-115.458;2022-09-03T13:55:13;101026.41;;;30.06;67.14
59409;BME280;45213;32.654;-115.458;2022-09-03T13:57:48;101025.34;;;30.09;67.21
59409;BME280;45213;32.654;-115.458;2022-09-03T14:00:39;101047.81;;;30.21;67.01
59409;BME280;45213;32.654;-115.458;2022-09-03T14:03:30;101049.53;;;30.22;66.88
59409;BME280;45213;32.654;-115.458;2022-09-03T14:17:40;101069.00;;;30.38;66.16
59409;BME280;45213;32.654;-115.458;2022-09-03T14:23:17;101043.22;;;30.35;65.91
59409;BME280;45213;32.654;-115.458;2022-09-03T14:25:55;101073.09;;;30.56;65.50
59409;BME280;45213;32.654;-115.458;2022-09-03T14:28:35;101077.28;;;30.60;65.47
59409;BME280;45213;32.654;-115.458;2022-09-03T14:34:16;101075.75;;;30.82;64.74
59409;BME280;45213;32.654;-115.458;2022-09-03T14:36:57;101095.44;;;30.95;64.25
59409;BME280;45213;32.654;-115.458;2022-09-03T14:39:55;101081.25;;;30.93;64.50
59409;BME280;45213;32.654;-115.458;2022-09-03T15:01:35;101095.31;;;31.47;63.18
59409;BME280;45213;32.654;-115.458;2022-09-03T15:04:31;101097.91;;;31.48;63.41
59409;BME280;45213;32.654;-115.458;2022-09-03T15:07:40;101099.72;;;31.72;63.12
59409;BME280;45213;32.654;-115.458;2022-09-03T15:10:41;101102.88;;;31.90;62.32
59409;BME280;45213;32.654;-115.458;2022-09-03T15:16:04;101105.56;;;31.90;61.90
59409;BME280;45213;32.654;-115.458;2022-09-03T15:27:38;101100.88;;;32.04;61.32
59409;BME280;45213;32.654;-115.458;2022-09-03T15:30:33;101120.81;;;32.49;60.18
59409;BME280;45213;32.654;-115.458;2022-09-03T15:41:39;101129.06;;;32.70;59.09
59409;BME280;45213;32.654;-115.458;2022-09-03T15:44:11;101126.38;;;32.81;58.99
59409;BME280;45213;32.654;-115.458;2022-09-03T15:46:46;101136.09;;;33.17;57.73
59409;BME280;45213;32.654;-115.458;2022-09-03T15:58:27;101154.59;;;33.33;56.33
59409;BME280;45213;32.654;-115.458;2022-09-03T16:01:46;101163.66;;;33.55;55.83
59409;BME280;45213;32.654;-115.458;2022-09-03T16:04:18;101144.25;;;33.49;55.22
59409;BME280;45213;32.654;-115.458;2022-09-03T16:07:14;101156.78;;;33.62;53.72
59409;BME280;45213;32.654;-115.458;2022-09-03T16:10:09;101165.06;;;33.81;54.24
59409;BME280;45213;32.654;-115.458;2022-09-03T16:15:46;101171.88;;;33.97;52.96
59409;BME280;45213;32.654;-115.458;2022-09-03T16:20:53;101172.81;;;34.18;52.06
59409;BME280;45213;32.654;-115.458;2022-09-03T16:25:56;101166.81;;;34.36;49.73
59409;BME280;45213;32.654;-115.458;2022-09-03T16:35:23;101162.78;;;34.93;46.00
59409;BME280;45213;32.654;-115.458;2022-09-03T16:43:09;101175.09;;;34.86;46.26
59409;BME280;45213;32.654;-115.458;2022-09-03T16:46:13;101173.13;;;34.88;46.46
59409;BME280;45213;32.654;-115.458;2022-09-03T16:49:00;101168.00;;;35.16;45.94
59409;BME280;45213;32.654;-115.458;2022-09-03T16:51:38;101167.66;;;35.30;44.61
59409;BME280;45213;32.654;-115.458;2022-09-03T16:59:51;101178.97;;;35.54;44.48